Time;durP1;ratioP1;P1;durP2;ratioP2;P2;SDS_P1;SDS_P2;PMS_P1;PMS_P2;Temp;Humidity;BMP_temperature;BMP_pressure;BME280_temperature;BME280_humidity;BME280_pressure;Samples;Min_cycle;Max_cycle;Signal;HPM_P1;HPM_P2
2021/12/23 00:01:39;;;;;;;90.72;32.55;;;-0.30;99.90;;;;;;6106094;23;20588;-86
2021/12/23 00:04:05;;;;;;;97.65;38.08;;;-0.30;99.90;;;;;;6105553;23;20190;-85
2021/12/23 00:06:31;;;;;;;96.87;54.70;;;-0.30;99.90;;;;;;6130086;23;20188;-85
2021/12/23 00:09:00;;;;;;;88.77;31.63;;;-0.30;99.90;;;;;;6105876;23;20322;-85
2021/12/23 00:11:27;;;;;;;100.40;46.58;;;-0.30;99.90;;;;;;6105687;23;20154;-85
2021/12/23 00:14:05;;;;;;;87.68;29.88;;;-0.30;99.90;;;;;;6131736;23;20166;-86
2021/12/23 00:16:55;;;;;;;89.03;38.33;;;-0.30;99.90;;;;;;6107202;23;20143;-85
2021/12/23 00:24:37;;;;;;;110.30;77.25;;;-0.30;99.90;;;;;;6132518;23;20173;-86
2021/12/23 00:27:03;;;;;;;101.38;56.45;;;-0.30;99.90;;;;;;6132617;23;20189;-86
2021/12/23 00:29:29;;;;;;;91.20;31.23;;;-0.30;99.90;;;;;;6132226;23;20149;-86
2021/12/23 00:31:55;;;;;;;88.33;30.57;;;-0.30;99.90;;;;;;6106767;23;20206;-85
2021/12/23 00:34:21;;;;;;;96.17;37.07;;;-0.30;99.90;;;;;;6131825;23;20189;-86
2021/12/23 00:36:47;;;;;;;96.93;30.88;;;-0.30;99.90;;;;;;6131390;23;20146;-86
2021/12/23 00:39:14;;;;;;;92.47;39.50;;;-0.30;99.90;;;;;;6105913;23;20196;-86
2021/12/23 00:41:45;;;;;;;117.80;79.38;;;-0.30;99.90;;;;;;6097282;22;20661;-87
2021/12/23 00:44:15;;;;;;;88.82;28.65;;;-0.30;99.90;;;;;;6124630;23;20218;-87
2021/12/23 00:46:43;;;;;;;93.15;42.42;;;-0.30;99.90;;;;;;6099046;23;20470;-87
2021/12/23 00:49:09;;;;;;;93.85;40.47;;;-0.30;99.90;;;;;;6124872;23;20580;-87
2021/12/23 00:51:35;;;;;;;118.73;104.87;;;-0.30;99.90;;;;;;6125222;23;20150;-87
2021/12/23 00:54:04;;;;;;;89.90;34.17;;;-0.30;99.90;;;;;;6125053;23;20167;-87
2021/12/23 00:56:37;;;;;;;109.90;73.00;;;-0.30;99.90;;;;;;6126004;23;20174;-87
2021/12/23 00:59:10;;;;;;;91.25;31.70;;;-0.30;99.90;;;;;;6098653;23;20174;-87
2021/12/23 01:01:36;;;;;;;87.05;28.52;;;-0.30;99.90;;;;;;6099016;23;20170;-87
2021/12/23 01:04:04;;;;;;;108.00;67.20;;;-0.30;99.90;;;;;;6098973;23;20232;-87
2021/12/23 01:06:33;;;;;;;106.00;56.35;;;-0.30;99.90;;;;;;6098137;23;20201;-87
2021/12/23 01:09:03;;;;;;;112.15;87.72;;;-0.30;99.90;;;;;;6124442;23;20147;-87
2021/12/23 01:11:28;;;;;;;94.90;33.15;;;-0.30;99.90;;;;;;6098850;23;20604;-87
2021/12/23 01:14:39;;;;;;;90.20;31.80;;;-0.30;99.90;;;;;;6098990;23;20190;-87
2021/12/23 01:19:26;;;;;;;101.68;42.53;;;-0.30;99.90;;;;;;6134772;23;20134;-87
2021/12/23 01:21:52;;;;;;;90.82;32.60;;;-0.30;99.90;;;;;;6125959;23;20496;-87
2021/12/23 01:24:18;;;;;;;90.50;31.63;;;-0.40;99.90;;;;;;6098516;23;20190;-87
2021/12/23 01:26:44;;;;;;;91.20;32.05;;;-0.40;99.90;;;;;;6124423;23;20220;-87
2021/12/23 01:29:13;;;;;;;87.10;30.70;;;-0.40;99.90;;;;;;6124003;23;20135;-87
2021/12/23 01:31:39;;;;;;;107.97;51.65;;;-0.40;99.90;;;;;;6124386;23;20366;-87
2021/12/23 01:34:06;;;;;;;88.03;29.47;;;-0.40;99.90;;;;;;6124638;23;20465;-87
2021/12/23 01:36:32;;;;;;;88.05;31.75;;;-0.40;99.90;;;;;;6123735;23;20210;-87
2021/12/23 01:39:01;;;;;;;93.73;29.70;;;-0.40;99.90;;;;;;6123589;23;20181;-87
2021/12/23 01:41:28;;;;;;;98.95;40.55;;;-0.40;99.90;;;;;;6097927;23;20189;-87
2021/12/23 01:43:56;;;;;;;88.55;29.25;;;-0.40;99.90;;;;;;6123361;23;20200;-87
2021/12/23 01:46:22;;;;;;;95.13;34.00;;;-0.40;99.90;;;;;;6097630;23;20253;-87
2021/12/23 01:48:52;;;;;;;98.95;42.42;;;-0.40;99.90;;;;;;6098115;23;20607;-87
2021/12/23 01:51:18;;;;;;;95.55;31.80;;;-0.40;99.90;;;;;;6098457;23;20147;-87
2021/12/23 01:53:56;;;;;;;92.05;31.73;;;-0.40;99.90;;;;;;6124017;23;20241;-87
2021/12/23 01:56:27;;;;;;;96.45;29.35;;;-0.30;99.90;;;;;;6123717;23;20130;-87
2021/12/23 01:58:53;;;;;;;93.10;39.92;;;-0.30;99.90;;;;;;6124046;23;20131;-87
2021/12/23 02:01:19;;;;;;;105.97;59.00;;;-0.40;99.90;;;;;;6098401;23;20239;-87
2021/12/23 02:03:52;;;;;;;88.77;32.13;;;-0.40;99.90;;;;;;6123257;23;20627;-87
2021/12/23 02:06:21;;;;;;;95.65;31.40;;;-0.40;99.90;;;;;;6124371;23;20339;-87
2021/12/23 02:08:49;;;;;;;96.88;47.80;;;-0.40;99.90;;;;;;6124682;23;20150;-87
2021/12/23 02:11:15;;;;;;;92.88;30.70;;;-0.40;99.90;;;;;;6098008;23;20154;-87
2021/12/23 02:13:52;;;;;;;91.07;33.27;;;-0.40;99.90;;;;;;6123566;23;20163;-87
2021/12/23 02:16:21;;;;;;;94.35;34.05;;;-0.30;99.90;;;;;;6123619;23;20362;-87
2021/12/23 02:18:50;;;;;;;98.28;39.60;;;-0.30;99.90;;;;;;6123573;23;20143;-87
2021/12/23 02:21:16;;;;;;;91.97;27.13;;;-0.40;99.90;;;;;;6123951;23;20154;-87
2021/12/23 02:23:50;;;;;;;92.33;33.80;;;-0.40;99.90;;;;;;6124223;23;20583;-87
2021/12/23 02:26:16;;;;;;;93.75;35.03;;;-0.40;99.90;;;;;;6123723;23;20343;-87
2021/12/23 02:28:42;;;;;;;91.47;33.50;;;-0.40;99.90;;;;;;6123942;23;20169;-87
2021/12/23 02:31:10;;;;;;;93.63;36.57;;;-0.40;99.90;;;;;;6124244;23;20584;-87
2021/12/23 02:33:36;;;;;;;96.88;43.40;;;-0.40;99.90;;;;;;6124307;23;20170;-87
2021/12/23 02:36:03;;;;;;;103.77;58.37;;;-0.40;99.90;;;;;;6123690;23;20149;-87
2021/12/23 02:38:32;;;;;;;96.03;55.60;;;-0.30;99.90;;;;;;6123720;23;20153;-87
2021/12/23 02:40:57;;;;;;;94.75;39.25;;;-0.40;99.90;;;;;;6124259;23;20143;-87
2021/12/23 02:43:26;;;;;;;91.93;34.73;;;-0.30;99.90;;;;;;6123598;23;20567;-87
2021/12/23 02:45:59;;;;;;;99.72;36.25;;;-0.30;99.90;;;;;;6123524;23;20209;-87
2021/12/23 02:48:38;;;;;;;93.35;32.38;;;-0.30;99.90;;;;;;6123422;23;20553;-87
2021/12/23 02:51:09;;;;;;;97.50;38.10;;;-0.30;99.90;;;;;;6123270;23;20146;-87
2021/12/23 02:53:35;;;;;;;97.53;37.72;;;-0.30;99.90;;;;;;6097725;23;20519;-87
2021/12/23 02:56:06;;;;;;;90.22;33.85;;;-0.30;99.90;;;;;;6123721;23;20142;-87
2021/12/23 02:58:32;;;;;;;96.90;34.95;;;-0.20;99.90;;;;;;6123113;23;20174;-87
2021/12/23 03:01:05;;;;;;;93.30;33.90;;;-0.20;99.90;;;;;;6123138;23;20218;-87
2021/12/23 03:03:30;;;;;;;107.00;55.80;;;-0.20;99.90;;;;;;6123202;23;20174;-87
2021/12/23 03:05:58;;;;;;;98.17;34.17;;;-0.20;99.90;;;;;;6123695;23;20166;-87
2021/12/23 03:08:28;;;;;;;91.53;35.20;;;-0.20;99.90;;;;;;6098174;23;20181;-87
2021/12/23 03:10:53;;;;;;;92.05;41.20;;;-0.20;99.90;;;;;;6123274;23;20150;-87
2021/12/23 03:13:19;;;;;;;92.93;33.67;;;-0.20;99.90;;;;;;6122976;23;20162;-87
2021/12/23 03:15:45;;;;;;;93.23;38.20;;;-0.20;99.90;;;;;;6123726;23;20158;-88
2021/12/23 03:18:11;;;;;;;93.38;36.75;;;-0.20;99.90;;;;;;6097507;23;20469;-87
2021/12/23 03:20:37;;;;;;;95.50;31.20;;;-0.20;99.90;;;;;;6122617;23;20147;-87
2021/12/23 03:23:03;;;;;;;91.97;33.90;;;-0.20;99.90;;;;;;6123447;23;20504;-87
2021/12/23 03:25:29;;;;;;;90.30;34.27;;;-0.10;99.90;;;;;;6097850;23;20230;-87
2021/12/23 03:27:57;;;;;;;96.22;36.10;;;-0.20;99.90;;;;;;6124262;23;20476;-87
2021/12/23 03:30:23;;;;;;;99.15;36.22;;;-0.20;99.90;;;;;;6123639;23;20592;-87
2021/12/23 03:32:49;;;;;;;97.53;35.83;;;-0.20;99.90;;;;;;6123753;23;20139;-87
2021/12/23 03:35:18;;;;;;;97.35;39.55;;;-0.20;99.90;;;;;;6098378;23;20382;-87
2021/12/23 03:37:47;;;;;;;105.60;37.97;;;-0.30;99.90;;;;;;6124578;23;20150;-87
2021/12/23 03:40:13;;;;;;;91.60;36.72;;;-0.30;99.90;;;;;;6124585;23;20208;-87
2021/12/23 03:42:42;;;;;;;97.75;36.67;;;-0.20;99.90;;;;;;6124500;23;20178;-87
2021/12/23 03:45:08;;;;;;;97.53;41.15;;;-0.30;99.90;;;;;;6124265;23;20170;-87
2021/12/23 03:47:37;;;;;;;93.45;38.20;;;-0.30;99.90;;;;;;6124116;23;20198;-87
2021/12/23 03:50:05;;;;;;;95.80;30.33;;;-0.20;99.90;;;;;;6124571;23;20135;-87
2021/12/23 03:52:31;;;;;;;102.28;52.85;;;-0.20;99.90;;;;;;6124546;23;20238;-87
2021/12/23 03:54:57;;;;;;;92.82;32.85;;;-0.20;99.90;;;;;;6124020;23;20500;-87
2021/12/23 03:57:23;;;;;;;97.20;33.90;;;-0.20;99.90;;;;;;6098424;23;20154;-87
2021/12/23 03:59:48;;;;;;;93.57;35.67;;;-0.20;99.90;;;;;;6098516;23;20149;-87
2021/12/23 04:02:15;;;;;;;98.20;38.40;;;-0.20;99.90;;;;;;6124360;23;20147;-88
2021/12/23 04:04:41;;;;;;;92.35;29.27;;;-0.20;99.90;;;;;;6097716;23;20665;-87
2021/12/23 04:07:07;;;;;;;97.38;33.95;;;-0.20;99.90;;;;;;6097922;23;20173;-87
2021/12/23 04:09:33;;;;;;;94.63;35.37;;;-0.20;99.90;;;;;;6098107;23;20154;-87
2021/12/23 04:12:02;;;;;;;95.27;33.23;;;-0.20;99.90;;;;;;6123997;23;20385;-87
2021/12/23 04:14:28;;;;;;;102.65;33.78;;;-0.20;99.90;;;;;;6098926;23;20414;-87
2021/12/23 04:16:53;;;;;;;96.50;36.63;;;-0.20;99.90;;;;;;6124073;23;20151;-87
2021/12/23 04:19:20;;;;;;;97.90;34.03;;;-0.20;99.90;;;;;;6124215;23;20139;-87
2021/12/23 04:21:45;;;;;;;99.47;40.78;;;-0.10;99.90;;;;;;6124179;23;20139;-87
2021/12/23 04:24:13;;;;;;;92.37;39.90;;;-0.20;99.90;;;;;;6123548;23;20228;-87
2021/12/23 04:26:39;;;;;;;95.85;39.97;;;-0.20;99.90;;;;;;6123987;23;20453;-87
2021/12/23 04:29:06;;;;;;;101.33;38.60;;;-0.30;99.90;;;;;;6098772;23;20154;-87
2021/12/23 04:31:33;;;;;;;94.68;34.50;;;-0.20;99.90;;;;;;6123594;23;20367;-87
2021/12/23 04:33:59;;;;;;;94.70;38.22;;;-0.20;99.90;;;;;;6123324;23;20555;-87
2021/12/23 04:36:27;;;;;;;98.22;36.45;;;-0.30;99.90;;;;;;6123591;23;20147;-87
2021/12/23 04:38:53;;;;;;;89.10;30.13;;;-0.30;99.90;;;;;;6123323;23;20171;-87
2021/12/23 04:41:20;;;;;;;94.95;30.73;;;-0.20;99.90;;;;;;6123938;23;20143;-87
2021/12/23 04:43:48;;;;;;;97.57;32.67;;;-0.20;99.90;;;;;;6123389;23;20547;-87
2021/12/23 04:46:14;;;;;;;93.72;32.88;;;-0.20;99.90;;;;;;6123499;23;20166;-87
2021/12/23 04:48:40;;;;;;;94.60;33.75;;;-0.20;99.90;;;;;;6097789;23;20146;-87
2021/12/23 04:51:09;;;;;;;96.40;35.70;;;-0.20;99.90;;;;;;6123512;23;20143;-87
2021/12/23 04:53:34;;;;;;;99.05;39.40;;;-0.20;99.90;;;;;;6123578;23;20236;-87
2021/12/23 04:56:00;;;;;;;93.53;34.00;;;-0.10;99.90;;;;;;6123057;23;20139;-87
2021/12/23 04:58:26;;;;;;;113.63;57.83;;;-0.10;99.90;;;;;;6123425;23;20142;-87
2021/12/23 05:00:52;;;;;;;95.70;35.57;;;-0.10;99.90;;;;;;6123980;23;20396;-87
2021/12/23 05:03:19;;;;;;;101.60;36.20;;;-0.10;99.90;;;;;;6123194;23;20170;-87
2021/12/23 05:05:49;;;;;;;94.80;32.30;;;-0.20;99.90;;;;;;6123095;23;20458;-87
2021/12/23 05:08:15;;;;;;;96.93;36.72;;;-0.20;99.90;;;;;;6123391;23;20142;-87
2021/12/23 05:10:41;;;;;;;91.80;31.13;;;-0.20;99.90;;;;;;6123257;23;20218;-87
2021/12/23 05:13:08;;;;;;;95.00;38.43;;;-0.20;99.90;;;;;;6122851;23;20213;-87
2021/12/23 05:15:37;;;;;;;93.88;37.75;;;-0.20;99.90;;;;;;6097685;23;20847;-87
2021/12/23 05:18:05;;;;;;;100.95;37.65;;;-0.20;99.90;;;;;;6123256;23;20492;-87
2021/12/23 05:20:31;;;;;;;97.22;38.72;;;-0.30;99.90;;;;;;6122959;23;20192;-87
2021/12/23 05:22:57;;;;;;;97.00;34.40;;;-0.30;99.90;;;;;;6122953;23;20166;-87
2021/12/23 05:25:23;;;;;;;97.72;33.95;;;-0.30;99.90;;;;;;6095781;23;20454;-87
2021/12/23 05:27:57;;;;;;;90.97;33.38;;;-0.40;99.90;;;;;;6123365;23;20135;-87
2021/12/23 05:30:27;;;;;;;99.25;37.50;;;-0.40;99.90;;;;;;6097192;23;20539;-87
2021/12/23 05:32:53;;;;;;;94.57;38.20;;;-0.40;99.90;;;;;;6123015;23;20142;-88
2021/12/23 05:35:20;;;;;;;97.65;38.40;;;-0.40;99.90;;;;;;6097813;23;20151;-87
2021/12/23 05:37:53;;;;;;;95.13;35.40;;;-0.50;99.90;;;;;;6097367;23;20147;-87
2021/12/23 05:40:57;;;;;;;94.72;34.33;;;-0.50;99.90;;;;;;6101160;23;20178;-87
2021/12/23 05:43:23;;;;;;;94.38;30.58;;;-0.40;99.90;;;;;;6096528;23;20182;-87
2021/12/23 05:45:51;;;;;;;89.70;29.00;;;-0.40;99.90;;;;;;6122801;23;20150;-87
2021/12/23 05:48:17;;;;;;;94.68;32.05;;;-0.40;99.90;;;;;;6122730;23;20421;-87
2021/12/23 05:50:43;;;;;;;98.07;32.80;;;-0.40;99.90;;;;;;6122871;23;20581;-87
2021/12/23 05:53:08;;;;;;;95.97;28.20;;;-0.30;99.90;;;;;;6122702;23;20174;-87
2021/12/23 05:55:34;;;;;;;93.97;30.80;;;-0.30;99.90;;;;;;6097049;23;20159;-87
2021/12/23 05:58:03;;;;;;;94.80;28.13;;;-0.30;99.90;;;;;;6097653;23;20151;-87
2021/12/23 06:00:33;;;;;;;96.20;37.05;;;-0.30;99.90;;;;;;6122653;23;20370;-87
2021/12/23 06:03:01;;;;;;;95.07;33.47;;;-0.30;99.90;;;;;;6096740;23;20175;-87
2021/12/23 06:05:30;;;;;;;102.88;44.50;;;-0.30;99.90;;;;;;6097093;23;20153;-87
2021/12/23 06:07:56;;;;;;;95.60;37.25;;;-0.30;99.90;;;;;;6122930;23;20143;-87
2021/12/23 06:10:24;;;;;;;104.30;45.83;;;-0.30;99.90;;;;;;6097186;23;20234;-87
2021/12/23 06:12:50;;;;;;;98.95;43.70;;;-0.30;99.90;;;;;;6096398;23;20767;-88
2021/12/23 06:15:16;;;;;;;95.07;44.90;;;-0.20;99.90;;;;;;6122645;23;20181;-87
2021/12/23 06:17:42;;;;;;;98.93;48.05;;;-0.20;99.90;;;;;;6122758;23;20143;-87
2021/12/23 06:20:10;;;;;;;100.43;46.97;;;-0.20;99.90;;;;;;6122775;23;20159;-87
2021/12/23 06:22:39;;;;;;;104.35;45.72;;;-0.10;99.90;;;;;;6122318;23;20371;-87
2021/12/23 06:25:07;;;;;;;98.90;42.47;;;-0.10;99.90;;;;;;6122448;23;20178;-87
2021/12/23 06:27:34;;;;;;;99.97;46.80;;;0.00;99.90;;;;;;6096862;23;20147;-87
2021/12/23 06:30:00;;;;;;;103.72;47.92;;;0.00;99.90;;;;;;6122428;23;20197;-87
2021/12/23 06:32:26;;;;;;;106.97;47.38;;;0.00;99.90;;;;;;6122665;23;20214;-87
2021/12/23 06:34:51;;;;;;;102.73;53.93;;;0.00;99.90;;;;;;6122092;23;20615;-87
2021/12/23 06:37:23;;;;;;;106.50;56.63;;;0.00;99.90;;;;;;6122449;23;20138;-87
2021/12/23 06:39:51;;;;;;;103.22;48.97;;;0.00;99.90;;;;;;6096416;23;20237;-87
2021/12/23 06:46:25;;;;;;;102.13;46.17;;;0.00;99.90;;;;;;6122760;23;20252;-87
2021/12/23 06:56:16;;;;;;;;;;;;;;;;;;;;;
2021/12/23 07:02:41;;;;;;;98.33;39.20;;;0.00;99.90;;;;;;5955327;24;20171;-85
2021/12/23 07:09:00;;;;;;;99.75;49.17;;;0.10;99.90;;;;;;6105549;23;20147;-85
2021/12/23 07:15:15;;;;;;;;;;;;;;;;;;;;;
2021/12/23 07:18:07;;;;;;;;;;;;;;;;;;;;;
2021/12/23 07:21:33;;;;;;;98.03;49.42;;;0.10;99.90;;;;;;6001118;23;20232;-87
2021/12/23 07:27:31;;;;;;;94.53;39.55;;;0.10;99.90;;;;;;6127116;23;20161;-84
2021/12/23 07:30:06;;;;;;;92.53;44.05;;;0.10;99.90;;;;;;5970539;23;20492;-87
2021/12/23 07:33:00;;;;;;;102.22;53.63;;;0.10;99.90;;;;;;5964065;23;20552;-87
2021/12/23 07:36:13;;;;;;;101.13;46.00;;;0.10;99.90;;;;;;5957547;24;20586;-87
2021/12/23 07:49:47;;;;;;;;;;;;;;;;;;;;;
2021/12/23 07:52:46;;;;;;;101.28;41.83;;;0.20;99.90;;;;;;6094171;23;20170;-88
2021/12/23 07:58:52;;;;;;;99.32;43.50;;;0.20;99.90;;;;;;6076054;23;20593;-87
2021/12/23 08:02:16;;;;;;;104.25;45.53;;;0.30;99.90;;;;;;6069351;23;20209;-87
2021/12/23 08:05:07;;;;;;;104.80;44.03;;;0.30;99.90;;;;;;6066688;23;20193;-87
2021/12/23 08:08:24;;;;;;;96.13;44.83;;;0.30;99.90;;;;;;6096782;23;20155;-88
2021/12/23 08:11:25;;;;;;;100.72;45.45;;;0.40;99.90;;;;;;6066286;23;20156;-88
2021/12/23 08:14:14;;;;;;;105.20;48.75;;;0.40;99.90;;;;;;6056718;23;20194;-87
2021/12/23 08:16:48;;;;;;;102.35;50.83;;;0.40;99.90;;;;;;6070671;23;20230;-87
2021/12/23 08:19:26;;;;;;;111.05;57.97;;;0.40;99.90;;;;;;6071326;23;20464;-88
2021/12/23 08:22:41;;;;;;;102.50;54.72;;;0.50;99.90;;;;;;6070676;23;20179;-88
2021/12/23 08:25:47;;;;;;;;;;;;;;;;;;;;;
2021/12/23 08:28:23;;;;;;;98.20;46.70;;;0.50;99.90;;;;;;6004131;23;20232;-87
2021/12/23 08:31:22;;;;;;;98.05;49.72;;;0.50;99.90;;;;;;6099685;23;20139;-87
2021/12/23 08:33:51;;;;;;;103.80;54.28;;;0.50;99.90;;;;;;6093953;23;20604;-87
2021/12/23 08:37:06;;;;;;;104.68;64.03;;;0.50;99.90;;;;;;6099217;23;20147;-86
2021/12/23 08:39:32;;;;;;;102.72;53.75;;;0.60;99.90;;;;;;6098805;23;20150;-87
2021/12/23 08:41:59;;;;;;;104.47;56.97;;;0.60;99.90;;;;;;6099378;23;20221;-86
2021/12/23 08:44:40;;;;;;;104.72;53.95;;;0.70;99.90;;;;;;6125025;23;20524;-87
2021/12/23 08:47:16;;;;;;;103.60;55.03;;;0.70;99.90;;;;;;6099588;23;20580;-87
2021/12/23 08:50:03;;;;;;;99.85;51.80;;;0.70;99.90;;;;;;6125960;23;20153;-86
2021/12/23 08:53:14;;;;;;;107.10;50.13;;;0.70;99.90;;;;;;6124704;23;20202;-86
2021/12/23 08:55:49;;;;;;;98.93;47.10;;;0.80;99.90;;;;;;6123841;23;20143;-86
2021/12/23 09:01:21;;;;;;;102.22;36.47;;;0.80;99.90;;;;;;6091385;23;20147;-86
2021/12/23 09:07:02;;;;;;;95.07;39.53;;;0.80;99.90;;;;;;6124826;23;20652;-86
2021/12/23 09:09:33;;;;;;;101.07;42.70;;;0.80;99.90;;;;;;6098107;23;20154;-86
2021/12/23 09:12:02;;;;;;;107.55;47.75;;;0.80;99.90;;;;;;6124092;23;20127;-86
2021/12/23 09:14:28;;;;;;;104.85;47.55;;;0.90;99.90;;;;;;6097975;23;20174;-86
2021/12/23 09:17:02;;;;;;;95.87;42.97;;;0.90;99.90;;;;;;6097931;23;20203;-86
2021/12/23 09:19:28;;;;;;;111.05;51.40;;;0.90;99.90;;;;;;6123805;23;20150;-86
2021/12/23 09:22:08;;;;;;;101.57;37.50;;;0.90;99.90;;;;;;6098240;23;20208;-86
2021/12/23 09:25:03;;;;;;;106.30;45.05;;;1.00;99.90;;;;;;6100722;23;20236;-86
2021/12/23 09:36:51;;;;;;;95.78;26.63;;;1.20;99.90;;;;;;6152799;23;20162;-86
2021/12/23 09:39:22;;;;;;;100.38;33.05;;;1.30;99.90;;;;;;6154164;23;20130;-86
2021/12/23 09:41:58;;;;;;;102.03;35.92;;;1.30;99.90;;;;;;6154210;22;20130;-87
2021/12/23 09:44:57;;;;;;;113.07;31.88;;;1.40;99.90;;;;;;6257606;22;20192;-86
2021/12/23 09:51:02;;;;;;;92.45;30.10;;;1.40;99.90;;;;;;6153355;22;20153;-87
2021/12/23 09:53:39;;;;;;;88.88;29.45;;;1.40;99.90;;;;;;6153967;23;20170;-86
2021/12/23 09:56:29;;;;;;;92.15;24.95;;;1.50;99.90;;;;;;6255572;22;20154;-86
2021/12/23 09:59:13;;;;;;;91.95;26.08;;;1.50;99.90;;;;;;6153216;22;20126;-86
2021/12/23 10:01:47;;;;;;;90.78;24.65;;;1.50;99.90;;;;;;6249173;22;20157;-86
2021/12/23 10:04:19;;;;;;;100.55;24.77;;;1.60;99.90;;;;;;6255536;22;20235;-86
2021/12/23 10:06:54;;;;;;;92.25;23.90;;;1.60;99.90;;;;;;6152669;23;20123;-86
2021/12/23 10:09:40;;;;;;;88.57;21.10;;;1.70;99.90;;;;;;6256957;22;20148;-86
2021/12/23 10:30:06;;;;;;;89.03;21.70;;;2.10;99.90;;;;;;6208393;22;20659;-87
2021/12/23 10:30:38;;;;;;;91.97;22.20;;;2.10;99.90;;;;;;6162396;22;20146;-86
2021/12/23 10:33:42;;;;;;;92.28;24.42;;;2.10;99.90;;;;;;6255644;22;20146;-86
2021/12/23 10:38:51;;;;;;;94.15;20.55;;;2.20;99.90;;;;;;6163734;23;20448;-86
2021/12/23 10:41:34;;;;;;;92.03;22.33;;;2.20;99.90;;;;;;6256660;22;20666;-86
2021/12/23 10:44:03;;;;;;;93.80;19.77;;;2.20;99.90;;;;;;6185732;22;20289;-86
2021/12/23 10:46:36;;;;;;;94.75;20.15;;;2.30;99.90;;;;;;6100211;23;20147;-86
2021/12/23 10:52:09;;;;;;;90.47;17.23;;;2.40;99.90;;;;;;6134298;23;20130;-85
2021/12/23 11:00:41;;;;;;;93.90;21.27;;;2.50;99.90;;;;;;6124090;23;20169;-86
2021/12/23 11:03:24;;;;;;;91.03;16.90;;;2.50;99.90;;;;;;6097826;23;20743;-86
2021/12/23 11:06:17;;;;;;;86.13;15.73;;;2.60;99.90;;;;;;6097781;23;20596;-86
2021/12/23 11:27:29;;;;;;;91.60;19.35;;;2.70;99.90;;;;;;6124291;23;20161;-88
2021/12/23 11:38:14;;;;;;;90.28;17.85;;;2.80;99.90;;;;;;6125122;23;20201;-87
2021/12/23 11:45:54;;;;;;;97.45;21.33;;;2.90;99.90;;;;;;6125683;23;20219;-86
2021/12/23 11:48:31;;;;;;;91.82;18.70;;;2.90;99.90;;;;;;6099972;23;20241;-87
2021/12/23 11:51:19;;;;;;;87.97;16.88;;;2.90;99.90;;;;;;6099591;23;20237;-88
2021/12/23 11:54:01;;;;;;;90.13;17.98;;;3.00;99.90;;;;;;6100943;23;20166;-88
2021/12/23 11:56:38;;;;;;;100.10;19.02;;;3.00;99.90;;;;;;6097763;23;20147;-88
2021/12/23 11:59:09;;;;;;;91.00;19.35;;;3.00;99.90;;;;;;6101129;23;20149;-87
2021/12/23 12:01:55;;;;;;;92.03;18.75;;;3.10;99.90;;;;;;6102289;23;20463;-88
2021/12/23 12:04:37;;;;;;;88.53;17.30;;;3.20;99.90;;;;;;6101391;23;20186;-89
2021/12/23 12:07:27;;;;;;;86.28;16.92;;;3.20;99.90;;;;;;6125792;23;20565;-88
2021/12/23 12:10:52;;;;;;;94.50;18.50;;;3.20;99.90;;;;;;6079071;23;20142;-88
2021/12/23 12:13:31;;;;;;;96.18;20.40;;;3.20;99.90;;;;;;6046443;23;20169;-87
2021/12/23 12:16:00;;;;;;;92.53;20.15;;;3.20;99.90;;;;;;6013434;23;20238;-88
2021/12/23 12:18:27;;;;;;;88.55;18.50;;;3.20;99.90;;;;;;6011817;23;20621;-88
2021/12/23 12:21:00;;;;;;;91.90;17.37;;;3.20;99.90;;;;;;6074162;23;20209;-87
2021/12/23 12:23:35;;;;;;;93.65;19.88;;;3.20;99.90;;;;;;6129217;23;20643;-87
2021/12/23 12:26:22;;;;;;;92.85;23.35;;;3.30;99.90;;;;;;6102249;23;20146;-88
2021/12/23 12:28:48;;;;;;;89.93;20.70;;;3.30;99.90;;;;;;6102192;23;20192;-88
2021/12/23 12:31:28;;;;;;;98.75;20.90;;;3.30;99.90;;;;;;6100914;23;20530;-87
2021/12/23 12:34:06;;;;;;;89.30;18.05;;;3.30;99.90;;;;;;6100209;23;20179;-88
2021/12/23 12:36:43;;;;;;;90.32;17.27;;;3.30;99.90;;;;;;6101199;23;20158;-88
2021/12/23 12:39:41;;;;;;;88.68;18.95;;;3.40;99.90;;;;;;6100655;23;20161;-87
2021/12/23 12:42:11;;;;;;;91.60;17.88;;;3.40;99.90;;;;;;6094604;22;20195;-85
2021/12/23 12:44:59;;;;;;;92.43;17.80;;;3.40;99.90;;;;;;6123271;23;20639;-85
2021/12/23 12:47:37;;;;;;;93.97;19.27;;;3.50;99.90;;;;;;6097687;23;20149;-85
2021/12/23 12:50:14;;;;;;;90.65;17.88;;;3.50;99.90;;;;;;6097103;23;20217;-85
2021/12/23 12:52:43;;;;;;;91.88;18.88;;;3.60;99.90;;;;;;6123290;23;20532;-85
2021/12/23 12:55:25;;;;;;;88.50;18.00;;;3.60;99.90;;;;;;6122446;23;20166;-85
2021/12/23 12:57:54;;;;;;;87.10;18.02;;;3.60;99.90;;;;;;6123373;23;20206;-85
2021/12/23 13:00:31;;;;;;;88.40;17.75;;;3.70;99.90;;;;;;6098075;23;20150;-85
2021/12/23 13:03:22;;;;;;;90.07;19.45;;;3.70;99.90;;;;;;6125808;23;20162;-85
2021/12/23 13:05:52;;;;;;;92.03;19.05;;;3.80;99.90;;;;;;6125710;23;20206;-85
2021/12/23 13:08:30;;;;;;;94.57;18.45;;;3.80;99.90;;;;;;6096861;23;20174;-86
2021/12/23 13:11:12;;;;;;;92.85;18.42;;;3.90;99.90;;;;;;6096987;23;20134;-85
2021/12/23 13:13:45;;;;;;;94.18;19.15;;;3.90;99.90;;;;;;6123648;23;20166;-85
2021/12/23 13:16:20;;;;;;;91.20;18.35;;;4.00;99.90;;;;;;6123344;23;20184;-85
2021/12/23 13:18:47;;;;;;;90.50;17.95;;;4.10;99.90;;;;;;6097376;23;20563;-85
2021/12/23 13:21:21;;;;;;;89.95;18.33;;;4.10;99.90;;;;;;6097233;23;20177;-86
2021/12/23 13:23:49;;;;;;;91.82;19.13;;;4.10;99.90;;;;;;6123055;23;20244;-86
2021/12/23 13:26:22;;;;;;;93.55;19.70;;;4.20;99.90;;;;;;6122911;23;20143;-86
2021/12/23 13:28:57;;;;;;;97.05;20.65;;;4.30;99.90;;;;;;6123316;23;20135;-86
2021/12/23 13:32:24;;;;;;;88.97;19.35;;;4.30;99.90;;;;;;6094251;23;20150;-86
2021/12/23 13:35:22;;;;;;;90.88;19.58;;;4.40;99.90;;;;;;6002749;23;20677;-86
2021/12/23 13:38:23;;;;;;;97.00;22.23;;;4.40;99.90;;;;;;6095941;23;20233;-86
2021/12/23 13:41:27;;;;;;;92.88;20.40;;;4.40;99.90;;;;;;6096029;23;20150;-86
2021/12/23 13:47:35;;;;;;;92.68;20.27;;;4.40;99.90;;;;;;6067217;23;20229;-86
2021/12/23 13:50:34;;;;;;;89.30;17.92;;;4.50;99.90;;;;;;6122587;23;20153;-86
2021/12/23 13:53:17;;;;;;;88.50;20.00;;;4.50;99.90;;;;;;6095381;23;20155;-86
2021/12/23 13:55:50;;;;;;;94.47;21.02;;;4.50;99.90;;;;;;6122545;23;20146;-86
2021/12/23 13:58:38;;;;;;;90.53;21.20;;;4.40;99.90;;;;;;6096552;23;20176;-86
2021/12/23 14:01:04;;;;;;;97.43;19.65;;;4.40;99.90;;;;;;6096885;23;20161;-86
2021/12/23 14:03:30;;;;;;;94.23;22.30;;;4.40;99.90;;;;;;6097049;23;20182;-86
2021/12/23 14:05:56;;;;;;;95.17;23.27;;;4.50;99.90;;;;;;6122128;23;20374;-86
2021/12/23 14:08:34;;;;;;;88.90;23.40;;;4.50;99.90;;;;;;6122590;23;20370;-86
2021/12/23 14:11:10;;;;;;;;;;;;;;;;;;;;;
2021/12/23 14:13:42;;;;;;;91.88;18.90;;;4.50;99.90;;;;;;6123059;23;20258;-86
2021/12/23 14:16:24;;;;;;;91.60;20.50;;;4.50;99.90;;;;;;6096374;23;20159;-86
2021/12/23 14:19:09;;;;;;;;;;;;;;;;;;;;;
2021/12/23 14:24:42;;;;;;;89.85;19.92;;;4.50;99.90;;;;;;6122294;23;20193;-86
2021/12/23 14:27:14;;;;;;;90.68;18.52;;;4.50;99.90;;;;;;6097052;23;20157;-86
2021/12/23 14:29:40;;;;;;;98.38;21.92;;;4.50;99.90;;;;;;6096864;23;20146;-86
2021/12/23 14:32:06;;;;;;;95.13;19.05;;;4.50;99.90;;;;;;6121705;23;20588;-86
2021/12/23 14:34:34;;;;;;;88.45;19.63;;;4.50;99.90;;;;;;6122404;23;20201;-86
2021/12/23 14:37:00;;;;;;;90.63;19.13;;;4.50;99.90;;;;;;6097760;23;20242;-86
2021/12/23 14:39:32;;;;;;;90.43;21.85;;;4.50;99.90;;;;;;6096609;23;20178;-86
2021/12/23 14:41:59;;;;;;;94.95;21.13;;;4.60;99.90;;;;;;6099450;23;20161;-86
2021/12/23 14:44:37;;;;;;;94.95;22.80;;;4.60;99.90;;;;;;6125208;23;20279;-86
2021/12/23 14:47:29;;;;;;;89.72;22.95;;;4.60;99.90;;;;;;6122461;23;20201;-86
2021/12/23 14:52:42;;;;;;;96.72;32.03;;;4.60;99.90;;;;;;6132056;23;20161;-86
2021/12/23 14:55:16;;;;;;;93.95;30.92;;;4.60;99.90;;;;;;6122083;23;20170;-86
2021/12/23 14:57:47;;;;;;;97.72;34.35;;;4.60;99.90;;;;;;6096910;23;20606;-86
2021/12/23 15:00:16;;;;;;;96.18;26.70;;;4.60;99.90;;;;;;6096376;23;20150;-86
2021/12/23 15:02:43;;;;;;;98.45;39.13;;;4.60;99.90;;;;;;6122958;23;20582;-86
2021/12/23 15:05:25;;;;;;;99.22;40.05;;;4.60;99.90;;;;;;6121945;23;20212;-86
2021/12/23 15:07:59;;;;;;;92.28;25.90;;;4.60;99.90;;;;;;6122425;23;20139;-86
2021/12/23 15:10:44;;;;;;;92.95;26.48;;;4.70;99.90;;;;;;6122869;23;20198;-86
2021/12/23 15:13:28;;;;;;;103.25;28.25;;;4.70;99.90;;;;;;6121976;23;20673;-86
2021/12/23 15:16:22;;;;;;;92.90;34.33;;;4.60;99.90;;;;;;6096383;23;20157;-86
2021/12/23 15:21:42;;;;;;;104.88;48.38;;;4.60;99.90;;;;;;6134976;23;20145;-86
2021/12/23 15:24:29;;;;;;;101.50;54.88;;;4.60;99.90;;;;;;6099291;23;20192;-86
2021/12/23 15:26:59;;;;;;;101.47;49.10;;;4.60;99.90;;;;;;6125449;23;20142;-86
2021/12/23 15:29:52;;;;;;;106.18;61.20;;;4.60;99.90;;;;;;6125550;23;20131;-86
2021/12/23 15:32:24;;;;;;;104.65;55.38;;;4.60;99.90;;;;;;6122489;23;20526;-86